createdAt,value
2023-04-22T00:30:32.409Z,12.30
2023-04-22T00:54:15.940Z,12.10
2023-04-22T01:08:12.723Z,12.00
2023-04-22T01:10:10.705Z,12.00
2023-04-22T01:11:48.606Z,12.00
2023-04-22T01:16:36.317Z,12.00
2023-04-22T01:21:31.021Z,12.10
2023-04-22T01:51:32.801Z,11.60
2023-04-22T02:17:26.950Z,11.30
2023-04-22T02:18:39.515Z,11.30
2023-04-22T02:24:02.756Z,11.70
2023-04-22T02:25:19.114Z,11.40
2023-04-22T02:27:01.184Z,11.30
2023-04-22T02:49:21.656Z,11.00
2023-04-22T02:54:28.395Z,11.00
2023-04-22T03:08:35.145Z,10.80
2023-04-22T03:10:55.389Z,10.70
2023-04-22T03:30:32.791Z,6.00
2023-04-22T03:32:30.417Z,10.40
2023-04-22T03:41:22.190Z,13.90
2023-04-22T04:13:08.967Z,14.40
2023-04-22T04:18:47.887Z,15.40
2023-04-22T04:28:02.727Z,15.90
2023-04-22T04:34:28.014Z,16.10
2023-04-22T04:37:40.896Z,16.30
2023-04-22T04:40:37.965Z,16.50
2023-04-22T04:50:49.580Z,17.30
2023-04-22T05:59:03.765Z,22.60
2023-04-22T06:00:52.501Z,22.60
2023-04-22T08:28:03.405Z,23.40
2023-04-22T08:29:08.747Z,23.60
2023-04-22T08:30:35.152Z,23.60
2023-04-22T08:39:11.744Z,24.30
2023-04-22T08:40:44.986Z,24.10
2023-04-22T08:42:23.803Z,23.90
2023-04-22T08:43:46.799Z,23.90
2023-04-22T08:45:12.924Z,23.90
2023-04-22T10:50:37.736Z,24.40
2023-04-22T10:52:10.053Z,24.70
2023-04-22T10:57:12.112Z,24.70
2023-04-22T10:58:43.371Z,24.60
2023-04-22T11:10:45.126Z,24.70
2023-04-22T11:14:22.547Z,24.10
2023-04-22T11:24:22.786Z,23.00
2023-04-22T11:25:27.200Z,23.20
2023-04-22T11:26:38.306Z,23.60
2023-04-22T11:27:43.572Z,23.30
2023-04-22T11:28:48.036Z,23.30
2023-04-22T11:30:01.167Z,22.50
2023-04-22T11:31:08.599Z,23.40
2023-04-22T11:32:11.763Z,24.40
2023-04-22T11:33:17.360Z,23.30
2023-04-22T11:34:20.032Z,21.60
2023-04-22T11:35:29.501Z,22.90
2023-04-22T11:36:33.380Z,23.40
2023-04-22T11:37:44.156Z,23.40
2023-04-22T11:38:57.125Z,23.60
2023-04-22T11:41:10.802Z,23.60
2023-04-22T11:42:15.102Z,20.80
2023-04-22T11:43:19.657Z,23.50
2023-04-22T11:44:25.228Z,23.50
2023-04-22T11:45:30.907Z,23.40
2023-04-22T11:46:38.660Z,23.40
2023-04-22T11:47:42.461Z,23.30
2023-04-22T11:48:49.010Z,23.20
2023-04-22T11:49:59.507Z,23.10
2023-04-22T11:51:11.934Z,23.10
2023-04-22T11:52:15.103Z,23.20
2023-04-22T11:53:23.915Z,23.20
2023-04-22T11:54:34.520Z,23.30
2023-04-22T11:55:41.927Z,23.20
2023-04-22T11:56:44.839Z,23.30
2023-04-22T11:57:58.544Z,23.30
2023-04-22T11:59:02.457Z,23.40
2023-04-22T12:00:07.396Z,23.40
2023-04-22T12:01:18.004Z,23.50
2023-04-22T12:02:22.638Z,23.50
2023-04-22T12:03:29.592Z,23.50
2023-04-22T12:04:37.083Z,23.50
2023-04-22T12:05:42.976Z,23.40
2023-04-22T12:06:47.256Z,23.40
2023-04-22T12:07:52.166Z,23.30
2023-04-22T12:08:56.939Z,23.40
2023-04-22T12:10:01.738Z,23.50
2023-04-22T12:11:07.046Z,22.50
2023-04-22T12:12:09.686Z,23.60
2023-04-22T12:13:22.240Z,23.50
2023-04-22T12:14:32.553Z,23.60
2023-04-22T12:16:44.431Z,23.60
2023-04-22T12:17:48.222Z,23.60
2023-04-22T12:18:56.668Z,27.60
2023-04-22T12:21:10.408Z,23.80
2023-04-22T12:23:17.144Z,23.90
2023-04-22T12:24:22.513Z,24.00
2023-04-22T12:25:26.323Z,24.10
2023-04-22T12:26:29.066Z,24.10
2023-04-22T12:27:33.016Z,24.20
2023-04-22T12:28:38.761Z,24.30
2023-04-22T12:29:55.123Z,24.30
2023-04-22T12:30:59.426Z,24.40
2023-04-22T12:32:04.994Z,24.50
2023-04-22T12:33:09.677Z,24.50
2023-04-22T12:34:12.150Z,24.50
2023-04-22T12:35:16.105Z,24.40
2023-04-22T12:36:21.133Z,24.20
2023-04-22T12:37:25.969Z,24.10
2023-04-22T12:43:55.589Z,23.60
2023-04-22T12:45:01.591Z,23.40
2023-04-22T13:08:46.402Z,22.60
2023-04-22T13:09:50.354Z,22.60
2023-04-22T13:10:53.804Z,22.60
2023-04-22T13:11:58.425Z,25.80
2023-04-22T13:15:18.197Z,22.70
2023-04-22T13:16:21.262Z,25.00
2023-04-22T13:17:25.393Z,23.00
2023-04-22T13:18:29.060Z,20.80
2023-04-22T13:19:32.081Z,23.20
2023-04-22T13:20:36.170Z,23.20
2023-04-22T13:21:38.956Z,26.10
2023-04-22T13:22:43.351Z,23.40
2023-04-22T13:23:46.330Z,23.50
2023-04-22T13:24:50.251Z,23.60
2023-04-22T13:25:53.307Z,23.60
2023-04-22T13:26:58.130Z,22.40
2023-04-22T13:28:02.007Z,23.60
2023-04-22T13:29:06.900Z,23.60
2023-04-22T13:30:13.798Z,23.60
2023-04-22T13:31:16.303Z,23.60
2023-04-22T13:32:23.342Z,23.40
2023-04-22T13:33:27.802Z,20.00
2023-04-22T13:34:31.772Z,23.20
2023-04-22T13:35:34.797Z,23.20
2023-04-22T13:36:38.434Z,23.20
2023-04-22T13:37:43.433Z,23.10
2023-04-22T13:38:47.248Z,18.90
2023-04-22T13:39:50.273Z,23.00
2023-04-22T13:40:54.233Z,23.00
2023-04-22T13:42:00.470Z,23.00
2023-04-22T13:43:03.288Z,22.80
2023-04-22T13:44:11.791Z,21.30
2023-04-22T13:45:16.309Z,22.80
2023-04-22T13:46:20.685Z,21.50
2023-04-22T13:47:26.740Z,22.80
2023-04-22T13:48:30.209Z,22.80
2023-04-22T13:49:36.100Z,22.80
2023-04-22T13:50:42.715Z,22.80
2023-04-22T13:51:58.407Z,20.20
2023-04-22T13:53:04.937Z,22.70
2023-04-22T13:54:11.953Z,22.80
2023-04-22T13:56:21.302Z,22.00
2023-04-22T13:57:23.925Z,23.20
2023-04-22T13:58:27.949Z,23.30
2023-04-22T13:59:37.175Z,22.40
2023-04-22T14:00:42.054Z,23.30
2023-04-22T14:01:47.007Z,23.20
2023-04-22T14:02:53.670Z,23.20
2023-04-22T14:03:56.731Z,23.00
2023-04-22T14:05:00.594Z,22.90
2023-04-22T14:06:04.044Z,22.80
2023-04-22T14:07:11.058Z,22.60
2023-04-22T14:08:13.769Z,25.10
2023-04-22T14:10:22.211Z,22.00
2023-04-22T14:12:28.646Z,22.00
2023-04-22T14:13:32.759Z,21.90
2023-04-22T14:14:35.135Z,21.90
2023-04-22T14:15:39.538Z,21.90
2023-04-22T14:16:48.713Z,21.70
2023-04-22T14:17:52.385Z,21.70
2023-04-22T14:18:56.249Z,21.80
2023-04-22T14:20:01.973Z,21.70
2023-04-22T14:21:10.524Z,21.80
2023-04-22T14:22:13.061Z,21.80
2023-04-22T14:23:17.107Z,21.80
2023-04-22T14:24:20.437Z,21.80
2023-04-22T14:25:24.444Z,19.90
2023-04-22T14:26:28.049Z,21.60
2023-04-22T14:27:30.730Z,21.30
2023-04-22T14:28:37.030Z,21.90
2023-04-22T14:29:39.860Z,21.90
2023-04-22T14:30:44.979Z,22.00
2023-04-22T14:31:50.893Z,22.10
2023-04-22T14:32:53.712Z,22.20
2023-04-22T14:33:57.908Z,22.30
2023-04-22T14:35:00.771Z,22.40
2023-04-22T14:36:04.530Z,22.40
2023-04-22T14:37:06.996Z,22.50
2023-04-22T14:38:12.633Z,22.50
2023-04-22T14:39:16.434Z,22.40
2023-04-22T14:40:20.434Z,22.30
2023-04-22T14:41:24.657Z,22.20
2023-04-22T14:42:27.357Z,22.10
2023-04-22T14:43:33.335Z,22.10
2023-04-22T14:44:35.994Z,21.90
2023-04-22T14:45:40.736Z,21.90
2023-04-22T14:46:43.164Z,21.80
2023-04-22T14:47:49.539Z,21.90
2023-04-22T14:48:52.065Z,21.90
2023-04-22T14:51:01.220Z,21.90
2023-04-22T14:52:06.679Z,21.90
2023-04-22T14:53:10.886Z,20.70
2023-04-22T14:54:13.869Z,21.80
2023-04-22T14:55:23.362Z,21.80
2023-04-22T14:56:28.229Z,21.70
2023-04-22T14:57:30.814Z,21.70
2023-04-22T14:58:34.436Z,21.70
2023-04-22T15:00:40.865Z,21.80
2023-04-22T15:01:43.733Z,22.00
2023-04-22T15:02:55.089Z,22.00
2023-04-22T15:03:58.775Z,22.00
2023-04-22T15:05:01.671Z,22.00
2023-04-22T15:06:05.399Z,22.00
2023-04-22T15:07:07.933Z,22.10
2023-04-22T15:08:12.222Z,22.00
2023-04-22T15:09:14.721Z,25.10
2023-04-22T15:10:18.190Z,22.20
2023-04-22T15:11:20.743Z,22.30
2023-04-22T15:12:24.976Z,22.30
2023-04-22T15:13:30.325Z,22.50
2023-04-22T15:14:35.446Z,22.60
2023-04-22T15:15:39.175Z,22.60
2023-04-22T15:16:42.071Z,22.70
2023-04-22T15:17:46.926Z,22.70
2023-04-22T15:18:50.969Z,22.70
2023-04-22T15:19:57.946Z,22.70
2023-04-22T15:21:00.643Z,22.70
2023-04-22T15:22:04.631Z,21.10
2023-04-22T15:23:08.495Z,22.70
2023-04-22T15:24:11.241Z,22.70
2023-04-22T15:25:16.069Z,22.80
2023-04-22T15:26:19.812Z,26.10
2023-04-22T15:27:23.413Z,22.80
2023-04-22T15:28:27.343Z,18.80
2023-04-22T15:29:32.327Z,22.70
2023-04-22T15:30:34.989Z,22.80
2023-04-22T15:31:38.840Z,22.70
2023-04-22T15:32:42.394Z,22.80
2023-04-22T15:35:53.817Z,23.00
2023-04-22T15:36:57.888Z,23.00
2023-04-22T15:38:02.994Z,23.10
2023-04-22T15:39:06.714Z,23.10
2023-04-22T15:40:16.853Z,23.20
2023-04-22T15:41:19.235Z,23.20
2023-04-22T15:42:22.688Z,23.20
2023-04-22T15:43:25.309Z,23.20
2023-04-22T15:44:29.162Z,23.20
2023-04-22T15:45:32.886Z,23.20
2023-04-22T15:47:40.797Z,23.00
2023-04-22T15:48:47.408Z,24.20
2023-04-22T15:49:52.977Z,22.80
2023-04-22T15:50:55.548Z,22.40
2023-04-22T15:52:01.126Z,20.10
2023-04-22T15:53:03.735Z,22.50
2023-04-22T15:54:08.853Z,22.40
2023-04-22T15:55:12.647Z,22.40
2023-04-22T15:56:21.101Z,22.30
2023-04-22T15:57:24.883Z,22.20
2023-04-22T15:58:29.000Z,22.10
2023-04-22T15:59:34.294Z,22.10
2023-04-22T16:00:41.948Z,22.00
2023-04-22T16:01:53.826Z,22.00
2023-04-22T16:02:56.738Z,22.00
2023-04-22T16:04:01.685Z,22.00
2023-04-22T16:05:07.545Z,20.10
2023-04-22T16:06:10.572Z,22.10
2023-04-22T16:07:15.570Z,22.00
2023-04-22T16:08:18.372Z,21.90
2023-04-22T16:09:23.420Z,21.70
2023-04-22T16:10:29.013Z,21.60
2023-04-22T16:11:35.649Z,17.50
2023-04-22T16:12:38.373Z,21.60
2023-04-22T16:13:41.964Z,24.70
2023-04-22T16:14:47.840Z,21.50
2023-04-22T16:15:51.862Z,21.50
2023-04-22T16:16:55.433Z,21.60
2023-04-22T16:17:59.243Z,21.60
2023-04-22T16:19:06.586Z,24.40
2023-04-22T16:20:14.573Z,22.80
2023-04-22T16:21:17.056Z,21.70
2023-04-22T16:22:23.208Z,21.60
2023-04-22T16:23:31.583Z,21.70
2023-04-22T16:24:37.786Z,21.70
2023-04-22T16:25:41.620Z,21.70
2023-04-22T16:26:45.282Z,21.60
2023-04-22T16:27:48.184Z,21.60
2023-04-22T16:28:51.977Z,21.60
2023-04-22T16:29:57.966Z,20.10
2023-04-22T16:31:01.791Z,21.40
2023-04-22T16:32:06.056Z,21.40
2023-04-22T16:33:09.945Z,21.20
2023-04-22T16:34:12.423Z,21.20
2023-04-22T16:35:17.924Z,21.20
2023-04-22T16:36:22.022Z,21.10
2023-04-22T16:37:27.485Z,21.10
2023-04-22T16:38:31.114Z,21.10
2023-04-22T16:39:36.727Z,21.20
2023-04-22T16:40:41.732Z,21.10
2023-04-22T16:41:44.205Z,21.20
2023-04-22T16:42:47.676Z,22.00
2023-04-22T16:43:51.940Z,21.10
2023-04-22T16:44:58.212Z,18.90
2023-04-22T16:46:02.002Z,21.10
2023-04-22T16:47:05.887Z,21.00
2023-04-22T16:48:19.134Z,21.20
2023-04-22T16:49:31.381Z,21.00
2023-04-22T16:50:35.042Z,20.90
2023-04-22T16:51:38.316Z,25.50
2023-04-22T16:53:44.882Z,21.00
2023-04-22T16:54:47.730Z,23.80
2023-04-22T16:55:51.453Z,20.90
2023-04-22T16:56:54.215Z,20.80
2023-04-22T16:58:02.684Z,20.90
2023-04-22T16:59:08.240Z,20.80
2023-04-22T17:00:13.638Z,19.20
2023-04-22T17:01:17.239Z,20.80
2023-04-22T17:02:20.482Z,20.70
2023-04-22T17:03:24.379Z,20.70
2023-04-22T17:04:28.426Z,20.60
2023-04-22T17:05:31.200Z,24.00
2023-04-22T17:06:39.858Z,20.60
2023-04-22T17:07:42.508Z,20.60
2023-04-22T17:08:46.205Z,20.50
2023-04-22T17:10:53.128Z,20.50
2023-04-22T17:11:56.716Z,20.40
2023-04-22T17:13:00.819Z,20.30
2023-04-22T17:14:04.650Z,20.30
2023-04-22T17:15:08.931Z,20.30
2023-04-22T17:16:12.801Z,20.30
2023-04-22T17:17:15.387Z,20.20
2023-04-22T17:18:23.634Z,20.20
2023-04-22T17:19:28.692Z,20.10
2023-04-22T17:20:34.188Z,20.20
2023-04-22T17:21:39.485Z,20.10
2023-04-22T17:22:47.235Z,20.10
2023-04-22T17:25:04.521Z,23.50
2023-04-22T17:26:08.163Z,18.30
2023-04-22T17:27:16.486Z,19.80
2023-04-22T17:28:20.280Z,19.80
2023-04-22T17:29:23.257Z,19.80
2023-04-22T17:30:29.828Z,19.80
2023-04-22T17:31:33.627Z,19.80
2023-04-22T17:32:39.979Z,19.80
2023-04-22T17:33:45.594Z,19.70
2023-04-22T17:34:49.736Z,19.60
2023-04-22T17:35:53.481Z,19.60
2023-04-22T17:36:58.367Z,19.60
2023-04-22T17:38:01.054Z,19.60
2023-04-22T17:39:04.524Z,19.60
2023-04-22T17:40:11.216Z,19.50
2023-04-22T17:41:14.709Z,17.20
2023-04-22T17:42:18.064Z,19.40
2023-04-22T17:43:21.988Z,23.40
2023-04-22T17:44:26.797Z,19.40
2023-04-22T17:45:30.636Z,19.30
2023-04-22T17:46:33.308Z,19.20
2023-04-22T17:47:37.090Z,19.20
2023-04-22T17:48:41.493Z,19.10
2023-04-22T17:49:45.116Z,19.10
2023-04-22T17:51:52.197Z,19.10
2023-04-22T17:52:58.509Z,16.90
2023-04-22T17:54:04.078Z,19.10
2023-04-22T17:55:11.475Z,19.00
2023-04-22T17:56:17.905Z,19.00
2023-04-22T17:57:21.482Z,19.00
2023-04-22T17:58:28.469Z,18.90
2023-04-22T17:59:31.340Z,18.90
2023-04-22T18:00:41.879Z,18.90
2023-04-22T18:01:44.835Z,18.90
2023-04-22T18:02:50.959Z,18.80
2023-04-22T18:03:59.546Z,18.80
2023-04-22T18:05:05.211Z,18.80
2023-04-22T18:06:09.862Z,18.70
2023-04-22T18:08:19.258Z,18.60
2023-04-22T18:10:26.736Z,18.50
2023-04-22T18:11:30.515Z,18.50
2023-04-22T18:13:38.349Z,18.50
2023-04-22T18:15:55.041Z,20.00
2023-04-22T18:16:57.972Z,18.40
2023-04-22T18:18:03.676Z,14.10
2023-04-22T18:19:09.051Z,18.40
2023-04-22T18:21:22.076Z,18.30
2023-04-22T18:22:27.685Z,18.40
2023-04-22T18:23:33.522Z,18.30
2023-04-22T18:24:37.029Z,18.20
2023-04-22T18:25:39.888Z,18.60
2023-04-22T18:27:47.961Z,18.10
2023-04-22T18:28:55.202Z,18.20
2023-04-22T18:29:58.195Z,18.10
2023-04-22T18:31:02.054Z,18.10
2023-04-22T18:33:11.936Z,18.10
2023-04-22T18:34:17.965Z,18.00
2023-04-22T18:35:20.816Z,18.00
2023-04-22T18:36:26.821Z,18.00
2023-04-22T18:37:31.223Z,18.00
2023-04-22T18:38:37.269Z,20.30
2023-04-22T18:39:39.866Z,17.90
2023-04-22T18:40:48.845Z,17.90
2023-04-22T18:42:59.866Z,17.90
2023-04-22T18:44:02.929Z,17.80
2023-04-22T18:45:08.793Z,17.80
2023-04-22T18:46:11.516Z,17.80
2023-04-22T18:47:15.721Z,17.80
2023-04-22T18:48:23.076Z,17.70
2023-04-22T18:49:26.167Z,17.70
2023-04-22T18:50:34.621Z,17.70
2023-04-22T18:51:42.957Z,17.70
2023-04-22T18:52:46.353Z,20.40
2023-04-22T18:53:52.778Z,17.60
2023-04-22T18:54:55.808Z,17.60
2023-04-22T18:58:08.867Z,17.40
2023-04-22T18:59:13.356Z,17.40
2023-04-22T19:01:24.971Z,17.30
2023-04-22T19:02:27.994Z,17.20
2023-04-22T19:03:32.840Z,17.30
2023-04-22T19:04:39.972Z,17.10
2023-04-22T19:05:46.849Z,17.10
2023-04-22T19:06:54.885Z,17.10
2023-04-22T19:07:57.761Z,17.10
2023-04-22T19:09:04.766Z,17.10
2023-04-22T19:10:10.718Z,14.30
2023-04-22T19:11:13.821Z,17.10
2023-04-22T19:12:20.061Z,17.10
2023-04-22T19:15:35.861Z,17.00
2023-04-22T19:16:40.236Z,17.00
2023-04-22T19:17:46.967Z,16.90
2023-04-22T19:18:51.393Z,16.90
2023-04-22T19:19:53.976Z,17.60
2023-04-22T19:21:01.193Z,16.90
2023-04-22T19:22:04.143Z,16.80
2023-04-22T19:23:08.163Z,16.80
2023-04-22T19:25:19.625Z,16.80
2023-04-22T19:26:22.605Z,16.70
2023-04-22T19:27:27.148Z,16.70
2023-04-22T19:28:30.117Z,16.60
2023-04-22T19:29:34.019Z,16.60
2023-04-22T19:30:36.789Z,16.60
2023-04-22T19:32:44.370Z,16.50
2023-04-22T19:33:49.904Z,16.50
2023-04-22T19:35:56.664Z,16.40
2023-04-22T19:39:15.484Z,16.40
2023-04-22T19:41:22.336Z,16.30
2023-04-22T19:45:42.138Z,16.30
2023-04-22T19:49:57.542Z,16.20
2023-04-22T19:52:04.406Z,16.20
2023-04-22T19:56:25.514Z,16.20
2023-04-22T20:05:05.743Z,15.90
2023-04-22T20:12:42.047Z,12.60
2023-04-22T20:17:03.254Z,16.10
2023-04-22T20:19:11.846Z,16.00
2023-04-22T20:21:22.860Z,16.00
2023-04-22T20:23:34.972Z,16.00
2023-04-22T20:24:43.206Z,15.90
2023-04-22T20:25:49.885Z,15.90
2023-04-22T20:26:53.204Z,15.90
2023-04-22T20:27:59.051Z,15.80
2023-04-22T20:30:13.569Z,15.90
2023-04-22T20:31:23.055Z,15.80
2023-04-22T20:32:27.798Z,15.80
2023-04-22T20:34:40.283Z,15.70
2023-04-22T20:35:44.344Z,15.60
2023-04-22T20:36:49.954Z,15.70
2023-04-22T20:40:09.960Z,15.60
2023-04-22T20:42:20.048Z,15.60
2023-04-22T20:47:42.602Z,15.60
2023-04-22T20:48:49.747Z,18.90
2023-04-22T20:49:52.441Z,15.60
2023-04-22T20:50:57.159Z,15.60
2023-04-22T20:52:00.185Z,15.50
2023-04-22T20:53:07.661Z,15.60
2023-04-22T20:54:27.697Z,15.50
2023-04-22T20:55:37.233Z,15.50
2023-04-22T20:56:40.281Z,15.50
2023-04-22T20:57:44.286Z,15.50
2023-04-22T21:00:57.803Z,15.40
2023-04-22T21:02:04.265Z,15.40
2023-04-22T21:03:11.277Z,15.40
2023-04-22T21:04:16.550Z,15.40
2023-04-22T21:05:20.091Z,15.40
2023-04-22T21:07:31.091Z,15.20
2023-04-22T21:08:40.091Z,15.40
2023-04-22T21:09:47.362Z,15.30
2023-04-22T21:14:07.865Z,15.30
2023-04-22T21:17:28.998Z,15.40
2023-04-22T21:18:34.801Z,15.20
2023-04-22T21:19:39.010Z,15.30
2023-04-22T21:20:48.246Z,15.30
2023-04-22T21:24:05.341Z,15.40
2023-04-22T21:25:09.702Z,15.30
2023-04-22T21:26:16.234Z,11.40
2023-04-22T21:27:21.788Z,18.40
2023-04-22T21:28:27.596Z,15.30
2023-04-22T21:29:31.315Z,15.30
2023-04-22T21:30:38.177Z,15.30
2023-04-22T21:31:41.205Z,15.40
2023-04-22T21:34:54.484Z,15.40
2023-04-22T21:37:07.110Z,12.80
2023-04-22T21:38:10.257Z,16.80
2023-04-22T21:39:16.378Z,15.40
2023-04-22T21:40:19.708Z,15.40
2023-04-22T21:41:26.666Z,15.40
2023-04-22T21:42:29.377Z,15.40
2023-04-22T21:43:33.290Z,15.40
2023-04-22T21:44:38.389Z,15.40
2023-04-22T21:45:44.374Z,15.40
2023-04-22T21:47:52.484Z,15.40
2023-04-22T21:48:55.658Z,15.40
2023-04-22T21:51:02.854Z,19.90
2023-04-22T21:56:27.127Z,15.40
2023-04-22T21:59:38.000Z,15.40
2023-04-22T22:00:42.529Z,15.20
2023-04-22T22:03:54.571Z,15.30
2023-04-22T22:07:08.112Z,15.30
2023-04-22T22:08:14.374Z,15.30
2023-04-22T22:09:17.329Z,15.40
2023-04-22T22:12:35.522Z,15.40
2023-04-22T22:20:09.333Z,15.30
2023-04-22T22:26:32.947Z,15.30
2023-04-22T22:28:42.661Z,17.30
2023-04-22T22:29:46.681Z,15.20
2023-04-22T22:34:04.850Z,15.10
2023-04-22T22:37:15.340Z,15.10
2023-04-22T22:39:27.931Z,15.00
2023-04-22T22:40:31.731Z,11.10
2023-04-22T22:41:38.483Z,15.00
2023-04-22T22:43:45.079Z,15.00
2023-04-22T22:44:51.722Z,15.00
2023-04-22T22:45:54.825Z,15.00
2023-04-22T22:46:58.573Z,14.90
2023-04-22T22:49:05.638Z,14.90
2023-04-22T22:50:09.201Z,14.90
2023-04-22T22:55:36.372Z,14.80
2023-04-22T22:56:46.289Z,14.80
2023-04-22T23:04:16.326Z,14.70
2023-04-22T23:42:11.359Z,13.90
